Time;durP1;ratioP1;P1;durP2;ratioP2;P2;SDS_P1;SDS_P2;PMS_P1;PMS_P2;Temp;Humidity;BMP_temperature;BMP_pressure;BME280_temperature;BME280_humidity;BME280_pressure;Samples;Min_cycle;Max_cycle;Signal;HPM_P1;HPM_P2
2022/03/20 00:01:43;;;;;;;12.25;6.30;;;2.80;99.90;;;;;;5069123;28;20083;-40
2022/03/20 00:04:09;;;;;;;12.07;6.68;;;2.80;99.90;;;;;;5069262;28;20139;-41
2022/03/20 00:06:35;;;;;;;12.55;6.85;;;2.70;99.90;;;;;;5068325;28;20383;-41
2022/03/20 00:09:00;;;;;;;12.57;7.10;;;2.60;99.90;;;;;;5068620;28;20033;-42
2022/03/20 00:11:28;;;;;;;12.05;7.00;;;2.50;99.90;;;;;;5068331;28;20110;-40
2022/03/20 00:13:54;;;;;;;13.38;7.70;;;2.50;99.90;;;;;;5068178;28;20041;-40
2022/03/20 00:16:23;;;;;;;13.10;6.78;;;2.40;99.90;;;;;;5069473;28;20045;-41
2022/03/20 00:18:49;;;;;;;11.32;6.63;;;2.40;99.90;;;;;;5069421;28;20044;-41
2022/03/20 00:21:15;;;;;;;13.80;6.50;;;2.40;99.90;;;;;;5068352;28;20136;-40
2022/03/20 00:23:44;;;;;;;18.13;6.43;;;2.30;99.90;;;;;;5069551;28;20157;-42
2022/03/20 00:26:10;;;;;;;13.60;7.10;;;2.20;99.90;;;;;;5068848;28;20054;-40
2022/03/20 00:28:36;;;;;;;10.77;6.85;;;2.20;99.90;;;;;;5069491;28;20037;-41
2022/03/20 00:31:01;;;;;;;10.30;5.68;;;2.10;99.90;;;;;;5069335;28;20043;-41
2022/03/20 00:33:27;;;;;;;13.27;6.90;;;2.10;99.90;;;;;;5069913;28;20044;-40
2022/03/20 00:35:53;;;;;;;13.23;7.25;;;2.00;99.90;;;;;;5069496;28;20041;-42
2022/03/20 00:38:19;;;;;;;14.07;7.15;;;2.00;99.90;;;;;;5069745;28;20143;-42
2022/03/20 00:40:45;;;;;;;13.30;7.57;;;1.90;99.90;;;;;;5069544;28;20044;-41
2022/03/20 00:43:11;;;;;;;12.52;6.82;;;1.90;99.90;;;;;;5069304;28;20044;-42
2022/03/20 00:45:37;;;;;;;12.73;6.93;;;1.80;99.90;;;;;;5069359;28;20062;-42
2022/03/20 00:48:03;;;;;;;14.00;7.63;;;1.80;99.90;;;;;;5068986;28;20063;-42
2022/03/20 00:50:29;;;;;;;17.85;7.95;;;1.80;99.90;;;;;;5069656;28;20048;-40
2022/03/20 00:52:56;;;;;;;12.07;7.50;;;1.80;99.90;;;;;;5069328;28;20032;-41
2022/03/20 00:55:22;;;;;;;13.10;7.25;;;1.70;99.90;;;;;;5069741;28;20098;-42
2022/03/20 00:57:47;;;;;;;14.15;7.20;;;1.70;99.90;;;;;;5069119;28;20049;-44
2022/03/20 01:00:13;;;;;;;13.32;7.22;;;1.70;99.90;;;;;;5068719;28;20093;-41
2022/03/20 01:02:44;;;;;;;15.80;7.43;;;1.70;99.90;;;;;;5068920;28;20041;-41
2022/03/20 01:05:10;;;;;;;16.10;5.97;;;1.70;99.90;;;;;;5069040;28;20044;-41
2022/03/20 01:07:37;;;;;;;14.43;8.02;;;1.70;99.90;;;;;;5068912;28;20530;-41
2022/03/20 01:10:04;;;;;;;16.20;8.40;;;1.80;99.90;;;;;;5069083;28;20432;-40
2022/03/20 01:12:32;;;;;;;22.90;8.52;;;1.80;99.90;;;;;;5069061;28;20029;-42
2022/03/20 01:14:59;;;;;;;16.42;6.93;;;1.80;99.90;;;;;;5068783;28;20040;-41
2022/03/20 01:17:24;;;;;;;14.45;7.07;;;1.80;99.90;;;;;;5068849;28;20390;-41
2022/03/20 01:19:51;;;;;;;14.02;7.30;;;1.80;99.90;;;;;;5068779;28;20047;-40
2022/03/20 01:22:17;;;;;;;15.30;7.65;;;1.70;99.90;;;;;;5068039;28;20053;-40
2022/03/20 01:24:43;;;;;;;19.63;7.32;;;1.70;99.90;;;;;;5068186;28;20359;-40
2022/03/20 01:27:09;;;;;;;14.63;7.20;;;1.80;99.90;;;;;;5067801;28;20461;-40
2022/03/20 01:29:35;;;;;;;10.00;6.57;;;1.70;99.90;;;;;;5068833;28;20036;-41
2022/03/20 01:32:02;;;;;;;13.68;6.93;;;1.80;99.90;;;;;;5068443;28;20040;-40
2022/03/20 01:34:27;;;;;;;14.20;7.55;;;1.70;99.90;;;;;;5068781;28;20045;-40
2022/03/20 01:36:53;;;;;;;17.48;7.72;;;1.80;99.90;;;;;;5068613;28;20546;-41
2022/03/20 01:39:19;;;;;;;13.90;7.57;;;1.70;99.90;;;;;;5068297;28;20044;-42
2022/03/20 01:41:47;;;;;;;19.90;8.57;;;1.70;99.90;;;;;;5084036;28;20112;-40
2022/03/20 01:44:13;;;;;;;17.35;8.90;;;1.70;99.90;;;;;;5068024;28;20048;-40
2022/03/20 01:46:39;;;;;;;15.98;8.38;;;1.70;99.90;;;;;;5067404;28;20059;-40
2022/03/20 01:49:04;;;;;;;17.40;8.15;;;1.70;99.90;;;;;;5068259;28;20048;-41
2022/03/20 01:54:15;;;;;;;14.88;8.05;;;1.60;99.90;;;;;;5081276;28;20101;-40
2022/03/20 01:56:46;;;;;;;15.93;7.90;;;1.60;99.90;;;;;;5068071;28;20545;-41
2022/03/20 01:59:14;;;;;;;17.35;9.82;;;1.60;99.90;;;;;;5068865;28;20051;-41
2022/03/20 02:01:40;;;;;;;14.57;8.05;;;1.60;99.90;;;;;;5068227;28;20491;-42
2022/03/20 02:04:05;;;;;;;22.63;9.18;;;1.40;99.90;;;;;;5068507;28;20087;-40
2022/03/20 02:06:31;;;;;;;15.40;7.63;;;1.50;99.90;;;;;;5068324;28;20403;-41
2022/03/20 02:08:57;;;;;;;16.08;9.65;;;1.50;99.90;;;;;;5067466;28;20044;-40
2022/03/20 02:11:26;;;;;;;17.80;8.52;;;1.40;99.90;;;;;;5069421;28;20064;-40
2022/03/20 02:13:52;;;;;;;16.95;8.30;;;1.30;99.90;;;;;;5071531;28;20047;-40
2022/03/20 02:16:18;;;;;;;16.77;9.07;;;1.20;99.90;;;;;;5070821;28;20056;-40
2022/03/20 02:18:46;;;;;;;18.77;10.65;;;1.20;99.90;;;;;;5071347;28;20080;-40
2022/03/20 02:21:12;;;;;;;16.08;8.35;;;1.10;99.90;;;;;;5071435;28;20074;-41
2022/03/20 02:23:38;;;;;;;21.02;8.75;;;1.20;99.90;;;;;;5071215;28;20052;-40
2022/03/20 02:26:03;;;;;;;17.52;9.50;;;1.20;99.90;;;;;;5070935;28;20185;-41
2022/03/20 02:28:29;;;;;;;17.70;9.43;;;1.10;99.90;;;;;;5070545;28;20094;-40
2022/03/20 02:30:55;;;;;;;19.52;10.48;;;1.10;99.90;;;;;;5070524;28;20510;-40
2022/03/20 02:33:23;;;;;;;18.65;9.65;;;1.00;99.90;;;;;;5071170;28;20079;-41
2022/03/20 02:35:51;;;;;;;16.77;10.15;;;1.00;99.90;;;;;;5071942;28;20044;-40
2022/03/20 02:38:18;;;;;;;16.33;9.25;;;0.90;99.90;;;;;;5071881;28;20040;-42
2022/03/20 02:40:45;;;;;;;15.77;8.85;;;0.90;99.90;;;;;;5071982;28;20044;-42
2022/03/20 02:43:11;;;;;;;16.80;9.35;;;0.90;99.90;;;;;;5071826;28;20048;-41
2022/03/20 02:45:38;;;;;;;16.73;9.18;;;0.80;99.90;;;;;;5071673;28;20453;-41
2022/03/20 02:48:04;;;;;;;18.23;9.35;;;0.80;99.90;;;;;;5071186;28;20059;-41
2022/03/20 02:50:36;;;;;;;19.23;9.30;;;0.90;99.90;;;;;;5071342;28;20542;-40
2022/03/20 02:53:03;;;;;;;22.67;11.02;;;0.80;99.90;;;;;;5071259;28;20040;-40
2022/03/20 02:55:29;;;;;;;22.08;10.38;;;0.80;99.90;;;;;;5071118;28;20064;-40
2022/03/20 02:57:57;;;;;;;17.75;9.77;;;0.80;99.90;;;;;;5071230;28;20040;-41
2022/03/20 03:00:29;;;;;;;22.20;11.00;;;0.80;99.90;;;;;;5070935;28;20079;-40
2022/03/20 03:02:56;;;;;;;22.15;11.00;;;0.80;99.90;;;;;;5070726;28;20059;-40
2022/03/20 03:05:25;;;;;;;21.15;10.23;;;0.80;99.90;;;;;;5070823;28;20076;-41
2022/03/20 03:10:59;;;;;;;19.67;10.55;;;0.90;99.90;;;;;;5070830;28;20051;-40
2022/03/20 03:13:36;;;;;;;19.13;10.85;;;0.80;99.90;;;;;;5069979;28;20075;-40
2022/03/20 03:16:10;;;;;;;19.80;10.98;;;0.90;99.90;;;;;;5070770;28;20032;-42
2022/03/20 03:18:38;;;;;;;21.55;10.88;;;0.70;99.90;;;;;;5070596;28;20044;-41
2022/03/20 03:21:04;;;;;;;23.15;10.55;;;0.80;99.90;;;;;;5069735;28;20491;-40
2022/03/20 03:23:30;;;;;;;21.75;11.52;;;0.90;99.90;;;;;;5069304;28;20090;-40
2022/03/20 03:25:56;;;;;;;23.30;12.13;;;1.00;99.90;;;;;;5070070;28;20083;-40
2022/03/20 03:28:28;;;;;;;23.45;13.07;;;1.00;99.90;;;;;;5069577;28;20090;-40
2022/03/20 03:30:54;;;;;;;18.80;11.68;;;1.00;99.90;;;;;;5070671;28;20036;-40
2022/03/20 03:33:21;;;;;;;18.80;11.73;;;1.00;99.90;;;;;;5070273;28;20498;-41
2022/03/20 03:35:54;;;;;;;23.75;12.48;;;1.00;99.90;;;;;;5070611;28;20090;-40
2022/03/20 03:38:26;;;;;;;21.85;11.90;;;1.00;99.90;;;;;;5070266;28;20132;-40
2022/03/20 03:40:53;;;;;;;19.20;10.53;;;1.10;99.90;;;;;;5070475;28;20041;-41
2022/03/20 03:43:19;;;;;;;21.13;12.55;;;1.00;99.90;;;;;;5070190;28;20310;-40
2022/03/20 03:45:46;;;;;;;21.05;12.55;;;1.10;99.90;;;;;;5070491;28;20048;-40
2022/03/20 03:48:13;;;;;;;20.40;11.68;;;1.00;99.90;;;;;;5069545;28;20060;-40
2022/03/20 03:50:41;;;;;;;21.77;11.13;;;1.10;99.90;;;;;;5070245;28;20048;-41
2022/03/20 03:53:09;;;;;;;25.92;12.48;;;1.10;99.90;;;;;;5070221;28;20141;-41
2022/03/20 03:55:36;;;;;;;22.08;12.45;;;1.20;99.90;;;;;;5070004;28;20040;-41
2022/03/20 03:58:03;;;;;;;25.25;12.05;;;1.10;99.90;;;;;;5069797;28;20482;-40
2022/03/20 04:00:32;;;;;;;23.20;13.15;;;1.10;99.90;;;;;;5070062;28;20151;-42
2022/03/20 04:02:59;;;;;;;25.92;13.63;;;1.10;99.90;;;;;;5069804;28;20045;-40
2022/03/20 04:05:25;;;;;;;27.15;14.90;;;1.40;99.90;;;;;;5069820;28;20048;-41
2022/03/20 04:07:51;;;;;;;23.23;13.63;;;1.00;99.90;;;;;;5069660;28;20525;-40
2022/03/20 04:10:17;;;;;;;24.55;13.63;;;1.10;99.90;;;;;;5069800;28;20072;-41
2022/03/20 04:12:44;;;;;;;21.10;14.38;;;1.10;99.90;;;;;;5069703;28;20040;-40
2022/03/20 04:15:14;;;;;;;24.20;13.07;;;1.10;99.90;;;;;;5068384;28;20053;-42
2022/03/20 04:17:42;;;;;;;26.25;13.02;;;1.00;99.90;;;;;;5069494;28;20493;-40
2022/03/20 04:20:09;;;;;;;24.40;13.48;;;1.10;99.90;;;;;;5069870;28;20090;-40
2022/03/20 04:22:36;;;;;;;24.25;12.75;;;1.00;99.90;;;;;;5069302;28;20048;-40
2022/03/20 04:25:04;;;;;;;23.20;13.93;;;1.10;99.90;;;;;;5069461;28;20044;-41
2022/03/20 04:27:30;;;;;;;28.58;14.70;;;1.00;99.90;;;;;;5069243;28;20041;-40
2022/03/20 04:29:56;;;;;;;26.73;13.73;;;1.10;99.90;;;;;;5068991;28;20047;-42
2022/03/20 04:32:22;;;;;;;24.45;14.50;;;1.20;99.90;;;;;;5069223;28;20036;-40
2022/03/20 04:34:47;;;;;;;26.08;14.38;;;1.00;99.90;;;;;;5069030;28;20036;-40
2022/03/20 04:37:14;;;;;;;19.95;13.32;;;1.10;99.90;;;;;;5069163;28;20466;-41
2022/03/20 04:39:40;;;;;;;22.38;14.57;;;1.10;99.90;;;;;;5069393;28;20040;-40
2022/03/20 04:42:08;;;;;;;26.35;14.30;;;1.00;99.90;;;;;;5069338;28;20418;-40
2022/03/20 04:44:33;;;;;;;28.83;14.70;;;0.90;99.90;;;;;;5069454;28;20443;-40
2022/03/20 04:46:59;;;;;;;24.05;14.50;;;1.10;99.90;;;;;;5069010;28;20140;-40
2022/03/20 05:00:23;;;;;;;26.35;14.25;;;1.10;99.90;;;;;;5069195;28;20063;-41
2022/03/20 05:02:49;;;;;;;25.60;15.38;;;1.00;99.90;;;;;;5068729;28;20040;-41
2022/03/20 05:05:16;;;;;;;21.35;14.13;;;1.00;99.90;;;;;;5069086;28;20048;-40
2022/03/20 05:07:42;;;;;;;24.15;13.93;;;1.10;99.90;;;;;;5068893;28;20044;-40
2022/03/20 05:15:39;;;;;;;25.20;15.18;;;1.10;99.90;;;;;;5069034;28;20051;-41
2022/03/20 05:18:08;;;;;;;25.48;14.50;;;1.10;99.90;;;;;;5069017;28;20072;-41
2022/03/20 05:20:35;;;;;;;24.50;16.08;;;1.10;99.90;;;;;;5067794;28;20545;-40
2022/03/20 05:23:01;;;;;;;27.27;15.90;;;1.20;99.90;;;;;;5067946;28;20282;-41
2022/03/20 05:25:30;;;;;;;26.95;15.75;;;1.00;99.90;;;;;;5068191;28;20502;-40
2022/03/20 05:27:59;;;;;;;23.88;15.13;;;1.10;99.90;;;;;;5068054;28;20043;-42
2022/03/20 05:30:25;;;;;;;23.83;15.43;;;1.00;99.90;;;;;;5067692;28;20076;-40
2022/03/20 05:32:51;;;;;;;25.42;14.93;;;1.10;99.90;;;;;;5068280;28;20040;-41
2022/03/20 05:35:17;;;;;;;26.08;14.93;;;1.10;99.90;;;;;;5069247;28;20040;-40
2022/03/20 05:37:44;;;;;;;26.15;14.60;;;1.10;99.90;;;;;;5068526;28;20079;-41
2022/03/20 05:40:11;;;;;;;27.33;16.50;;;1.10;99.90;;;;;;5069038;28;20048;-41
2022/03/20 05:42:36;;;;;;;28.40;16.38;;;1.00;99.90;;;;;;5067896;28;20048;-40
2022/03/20 05:45:06;;;;;;;26.10;14.98;;;1.10;99.90;;;;;;5067911;28;20050;-40
2022/03/20 05:47:32;;;;;;;28.25;17.50;;;1.10;99.90;;;;;;5071260;28;20055;-40
2022/03/20 05:50:00;;;;;;;28.30;15.82;;;1.20;99.90;;;;;;5070549;28;20504;-41
2022/03/20 05:52:27;;;;;;;28.70;15.48;;;1.30;99.90;;;;;;5071564;28;20394;-40
2022/03/20 05:54:52;;;;;;;24.65;15.57;;;1.40;99.90;;;;;;5071460;28;20044;-40
2022/03/20 06:00:04;;;;;;;25.98;15.48;;;1.70;99.90;;;;;;5072091;28;20060;-40
2022/03/20 06:02:29;;;;;;;26.48;16.73;;;1.80;99.90;;;;;;5072067;28;20082;-41
2022/03/20 06:04:55;;;;;;;23.83;11.90;;;2.10;99.90;;;;;;5072018;28;20095;-40
2022/03/20 06:07:20;;;;;;;29.17;16.60;;;2.20;99.90;;;;;;5072174;28;20040;-41
2022/03/20 06:09:46;;;;;;;25.52;14.90;;;2.40;99.90;;;;;;5071930;28;20077;-41
2022/03/20 06:12:12;;;;;;;20.33;13.23;;;2.60;99.90;;;;;;5072729;28;20127;-41
2022/03/20 06:14:38;;;;;;;24.33;14.02;;;2.70;99.90;;;;;;5072172;28;20036;-41
2022/03/20 06:17:06;;;;;;;23.98;15.10;;;3.20;99.90;;;;;;5072400;28;20040;-41
2022/03/20 06:19:33;;;;;;;23.55;14.27;;;3.00;99.90;;;;;;5072100;28;20048;-40
2022/03/20 06:21:59;;;;;;;24.02;15.45;;;3.00;99.90;;;;;;5072000;28;20032;-41
2022/03/20 06:24:24;;;;;;;25.08;15.88;;;3.10;99.90;;;;;;5071942;28;20079;-40
2022/03/20 06:26:50;;;;;;;22.50;14.45;;;3.10;99.90;;;;;;5071719;28;20067;-40
2022/03/20 06:29:16;;;;;;;24.83;15.27;;;3.20;99.90;;;;;;5072028;28;20063;-42
2022/03/20 06:31:42;;;;;;;23.40;14.45;;;3.20;99.90;;;;;;5071577;28;20037;-41
2022/03/20 06:34:08;;;;;;;24.52;14.60;;;3.20;99.90;;;;;;5071068;28;20423;-42
2022/03/20 06:36:34;;;;;;;26.80;15.45;;;3.00;99.90;;;;;;5071863;28;20038;-40
2022/03/20 06:38:59;;;;;;;23.75;16.02;;;3.00;99.90;;;;;;5071554;28;20128;-41
2022/03/20 06:41:25;;;;;;;27.98;16.45;;;2.90;99.90;;;;;;5071449;28;20052;-40
2022/03/20 06:43:51;;;;;;;22.88;14.35;;;2.90;99.90;;;;;;5070881;28;20063;-40
2022/03/20 06:46:17;;;;;;;24.15;13.98;;;2.70;99.90;;;;;;5070889;28;20040;-40
2022/03/20 06:48:43;;;;;;;24.58;14.00;;;2.70;99.90;;;;;;5070191;28;20060;-40
2022/03/20 06:51:09;;;;;;;26.70;15.10;;;2.80;99.90;;;;;;5070956;28;20040;-40
2022/03/20 06:53:35;;;;;;;24.95;14.38;;;4.00;99.90;;;;;;5070438;28;20041;-41
2022/03/20 06:56:00;;;;;;;25.65;14.00;;;2.80;99.90;;;;;;5071460;28;20132;-40
2022/03/20 06:58:27;;;;;;;25.90;14.88;;;2.90;99.90;;;;;;5071489;28;20059;-40
2022/03/20 07:00:54;;;;;;;25.95;14.82;;;3.00;99.90;;;;;;5071122;28;20049;-41
2022/03/20 07:03:20;;;;;;;23.92;14.70;;;3.10;99.90;;;;;;5071264;28;20700;-41
2022/03/20 07:05:46;;;;;;;22.17;15.45;;;3.30;99.90;;;;;;5071177;28;20084;-41
2022/03/20 07:08:13;;;;;;;25.83;13.95;;;3.50;99.90;;;;;;5071223;28;20066;-41
2022/03/20 07:10:39;;;;;;;23.80;14.90;;;3.90;99.90;;;;;;5070942;28;20078;-41
2022/03/20 07:15:53;;;;;;;21.20;14.80;;;4.40;99.90;;;;;;5070349;28;20055;-41
2022/03/20 07:18:20;;;;;;;22.52;13.90;;;4.50;99.90;;;;;;5071013;28;20094;-41
2022/03/20 07:20:47;;;;;;;25.83;15.73;;;5.00;99.90;;;;;;5069443;28;20048;-41
2022/03/20 07:23:14;;;;;;;23.10;13.02;;;4.30;99.90;;;;;;5070998;28;20062;-41
2022/03/20 07:31:11;;;;;;;21.55;12.82;;;4.40;99.90;;;;;;5069888;28;20052;-41
2022/03/20 07:33:39;;;;;;;22.55;14.95;;;4.60;99.90;;;;;;5070497;28;20497;-41
2022/03/20 07:36:05;;;;;;;21.10;14.07;;;4.50;99.90;;;;;;5070574;28;20044;-41
2022/03/20 07:38:31;;;;;;;16.05;10.13;;;4.60;99.90;;;;;;5070413;28;20045;-42
2022/03/20 07:40:57;;;;;;;21.13;12.57;;;4.70;99.90;;;;;;5070143;28;20058;-41
2022/03/20 07:43:23;;;;;;;21.55;12.20;;;4.70;99.90;;;;;;5070620;28;20036;-41
2022/03/20 07:45:50;;;;;;;23.30;12.50;;;4.90;99.90;;;;;;5069904;28;20097;-40
2022/03/20 07:48:15;;;;;;;25.92;11.68;;;5.00;99.90;;;;;;5070178;28;20105;-42
2022/03/20 07:50:41;;;;;;;26.13;13.18;;;5.20;99.90;;;;;;5070060;28;20483;-42
2022/03/20 07:53:07;;;;;;;21.48;13.65;;;5.40;99.90;;;;;;5070190;28;20040;-41
2022/03/20 07:55:34;;;;;;;19.40;8.95;;;5.10;99.90;;;;;;5069521;28;20032;-41
2022/03/20 07:58:01;;;;;;;21.00;10.70;;;5.30;99.90;;;;;;5069200;28;20045;-40
2022/03/20 08:00:27;;;;;;;24.13;12.77;;;5.30;99.90;;;;;;5069241;28;20082;-40
2022/03/20 08:02:52;;;;;;;24.90;12.50;;;5.00;99.90;;;;;;5069873;28;20036;-41
2022/03/20 08:05:18;;;;;;;24.20;13.63;;;5.20;99.90;;;;;;5069710;28;20105;-41
2022/03/20 08:07:44;;;;;;;21.55;13.07;;;5.30;99.90;;;;;;5069258;28;20041;-43
2022/03/20 08:10:12;;;;;;;23.58;13.52;;;5.90;99.90;;;;;;5068182;28;20387;-42
2022/03/20 08:12:38;;;;;;;20.38;11.38;;;5.60;99.20;;;;;;5069521;28;20391;-40
2022/03/20 08:15:05;;;;;;;27.88;14.73;;;5.80;98.80;;;;;;5068860;28;20037;-40
2022/03/20 08:17:40;;;;;;;20.10;10.73;;;5.70;97.50;;;;;;5069177;28;20470;-41
2022/03/20 08:20:07;;;;;;;18.13;11.52;;;5.80;97.30;;;;;;5069067;28;20049;-42
2022/03/20 08:22:33;;;;;;;21.20;11.30;;;5.90;96.00;;;;;;5069487;28;20052;-42
2022/03/20 08:24:59;;;;;;;20.75;13.32;;;6.20;95.40;;;;;;5068963;28;20048;-41
2022/03/20 08:27:25;;;;;;;22.80;13.27;;;6.10;94.90;;;;;;5068900;28;20045;-41
2022/03/20 08:29:51;;;;;;;26.33;14.90;;;6.30;93.90;;;;;;5068659;28;20528;-42
2022/03/20 08:32:19;;;;;;;22.20;12.30;;;6.30;93.90;;;;;;5069151;28;20037;-41
2022/03/20 08:34:44;;;;;;;22.88;14.25;;;6.40;92.10;;;;;;5069453;28;20040;-42
2022/03/20 08:37:10;;;;;;;23.58;13.73;;;6.80;91.80;;;;;;5069281;28;20048;-40
2022/03/20 08:39:36;;;;;;;19.55;12.30;;;7.50;92.10;;;;;;5069547;28;20098;-41
2022/03/20 08:42:02;;;;;;;17.67;10.25;;;7.20;92.90;;;;;;5067128;28;20434;-41
2022/03/20 08:44:28;;;;;;;21.90;14.75;;;7.50;89.90;;;;;;5069269;28;20040;-41
2022/03/20 08:46:53;;;;;;;18.95;13.02;;;8.00;90.20;;;;;;5068854;28;20067;-42
2022/03/20 08:49:19;;;;;;;22.13;14.45;;;8.60;83.90;;;;;;5069306;28;20040;-42
2022/03/20 08:51:45;;;;;;;24.10;14.20;;;9.00;81.00;;;;;;5069222;28;20044;-43
2022/03/20 08:54:11;;;;;;;23.30;14.25;;;9.50;80.90;;;;;;5069160;28;20036;-42
2022/03/20 08:56:40;;;;;;;21.13;14.38;;;9.50;81.10;;;;;;5069027;28;20036;-43
2022/03/20 08:59:06;;;;;;;24.15;13.52;;;9.70;75.80;;;;;;5068917;28;20032;-42
2022/03/20 09:01:32;;;;;;;23.33;15.38;;;9.70;77.90;;;;;;5069244;28;20117;-42
2022/03/20 09:03:58;;;;;;;21.35;12.80;;;10.30;76.00;;;;;;5068841;28;20079;-41
2022/03/20 09:06:23;;;;;;;23.85;12.48;;;10.70;72.70;;;;;;5068919;28;20044;-41
2022/03/20 09:08:50;;;;;;;22.20;13.90;;;10.80;69.50;;;;;;5084464;28;20653;-41
2022/03/20 09:11:17;;;;;;;23.02;14.40;;;10.90;67.00;;;;;;5068543;28;20055;-42
2022/03/20 09:13:43;;;;;;;20.67;11.85;;;10.90;68.70;;;;;;5069145;28;20245;-42
2022/03/20 09:18:59;;;;;;;23.50;15.02;;;11.30;65.40;;;;;;5068918;28;20051;-42
2022/03/20 09:21:30;;;;;;;22.30;14.70;;;11.20;66.10;;;;;;5072498;28;20501;-41
2022/03/20 09:23:58;;;;;;;20.85;14.52;;;11.10;66.70;;;;;;5072676;28;20040;-41
2022/03/20 09:26:24;;;;;;;21.48;14.00;;;11.30;67.20;;;;;;5072945;28;20041;-43
2022/03/20 09:28:50;;;;;;;24.52;16.42;;;10.90;66.00;;;;;;5072782;28;20033;-41
2022/03/20 09:31:16;;;;;;;22.73;15.63;;;11.00;64.20;;;;;;5071932;28;20068;-41
2022/03/20 09:33:43;;;;;;;19.55;13.50;;;11.40;64.40;;;;;;5071052;28;20459;-42
2022/03/20 09:36:10;;;;;;;22.50;14.73;;;11.30;63.50;;;;;;5072281;28;20044;-41
2022/03/20 09:38:37;;;;;;;25.08;15.98;;;11.10;66.40;;;;;;5071834;28;20094;-42
2022/03/20 09:41:07;;;;;;;21.95;15.52;;;10.90;67.40;;;;;;5071548;28;20040;-42
2022/03/20 09:43:41;;;;;;;22.13;16.05;;;11.00;66.70;;;;;;5071921;28;20041;-41
2022/03/20 09:46:07;;;;;;;24.05;16.63;;;11.90;65.60;;;;;;5071992;28;20040;-41
2022/03/20 09:48:34;;;;;;;21.55;15.63;;;11.60;65.10;;;;;;5071935;28;20093;-42
2022/03/20 09:51:01;;;;;;;21.73;16.02;;;12.30;63.70;;;;;;5070835;28;20036;-42
2022/03/20 09:53:27;;;;;;;23.98;16.23;;;12.30;60.90;;;;;;5071563;28;20032;-41
2022/03/20 09:55:56;;;;;;;26.80;16.35;;;12.70;61.60;;;;;;5070555;28;20511;-42
2022/03/20 09:58:27;;;;;;;25.02;16.75;;;12.40;60.10;;;;;;5072148;28;20065;-41
2022/03/20 10:00:54;;;;;;;23.27;15.67;;;12.40;59.30;;;;;;5072170;28;20040;-42
2022/03/20 10:03:24;;;;;;;24.48;16.92;;;12.20;61.60;;;;;;5071980;28;20053;-42
2022/03/20 10:06:20;;;;;;;23.85;16.38;;;12.10;62.60;;;;;;5071806;28;20086;-41
2022/03/20 10:09:00;;;;;;;25.38;15.63;;;11.70;61.90;;;;;;5071158;28;20032;-41
2022/03/20 10:11:26;;;;;;;30.00;17.42;;;11.60;60.00;;;;;;5071961;28;20083;-42
2022/03/20 10:14:14;;;;;;;23.10;16.42;;;11.80;60.40;;;;;;5071902;28;20090;-42
2022/03/20 10:16:42;;;;;;;25.70;15.52;;;11.90;59.20;;;;;;5072253;28;20037;-41
2022/03/20 10:19:23;;;;;;;23.20;16.02;;;12.20;60.90;;;;;;5071919;28;20089;-42
2022/03/20 10:22:02;;;;;;;26.52;16.23;;;12.50;58.90;;;;;;5071407;28;20044;-41
2022/03/20 10:24:30;;;;;;;23.85;15.98;;;12.80;58.50;;;;;;5070492;28;20509;-41
2022/03/20 10:26:58;;;;;;;25.70;16.17;;;13.20;58.90;;;;;;5070302;28;20127;-42
2022/03/20 10:29:24;;;;;;;24.55;17.27;;;13.50;57.30;;;;;;5070979;28;20386;-41
2022/03/20 10:31:52;;;;;;;24.83;17.88;;;13.30;57.90;;;;;;5069903;28;20037;-41
2022/03/20 10:34:19;;;;;;;23.60;16.20;;;13.30;57.20;;;;;;5070373;28;20043;-43
2022/03/20 10:36:46;;;;;;;27.17;17.92;;;13.30;56.20;;;;;;5070922;28;20044;-42
2022/03/20 10:39:19;;;;;;;23.70;15.38;;;13.40;56.30;;;;;;5070401;28;20051;-41
2022/03/20 10:41:51;;;;;;;21.42;16.08;;;13.40;54.90;;;;;;5070623;28;20044;-43
2022/03/20 10:44:26;;;;;;;25.80;16.70;;;13.20;54.50;;;;;;5071359;28;20068;-43
2022/03/20 10:46:57;;;;;;;26.08;17.88;;;13.20;54.30;;;;;;5071384;28;20194;-43
2022/03/20 10:49:24;;;;;;;24.33;15.52;;;13.10;55.70;;;;;;5071090;28;20123;-45
2022/03/20 10:52:10;;;;;;;25.40;16.38;;;12.90;54.80;;;;;;5071107;28;20162;-43
2022/03/20 10:54:41;;;;;;;26.77;17.00;;;12.00;56.00;;;;;;5069975;28;20042;-44
2022/03/20 10:57:08;;;;;;;24.13;14.93;;;11.10;57.30;;;;;;5069925;28;20037;-43
2022/03/20 10:59:34;;;;;;;23.98;16.60;;;10.60;59.80;;;;;;5070224;28;20064;-42
2022/03/20 11:02:02;;;;;;;23.80;17.75;;;10.80;60.60;;;;;;5068751;28;20123;-44
2022/03/20 11:04:28;;;;;;;29.08;18.20;;;10.10;61.40;;;;;;5069405;28;20033;-42
2022/03/20 11:06:54;;;;;;;25.38;16.80;;;10.00;62.80;;;;;;5070529;28;20041;-45
2022/03/20 11:09:21;;;;;;;23.83;16.77;;;9.90;61.20;;;;;;5070542;28;20049;-42
2022/03/20 11:11:52;;;;;;;25.95;16.63;;;9.80;61.70;;;;;;5070380;28;20434;-42
2022/03/20 11:14:21;;;;;;;24.20;16.37;;;9.90;62.70;;;;;;5069922;28;20047;-44
2022/03/20 11:17:01;;;;;;;26.25;16.50;;;10.00;62.10;;;;;;5070197;28;20051;-43
2022/03/20 11:19:29;;;;;;;26.23;16.95;;;9.90;61.60;;;;;;5070700;28;20547;-43
2022/03/20 11:22:05;;;;;;;22.67;14.13;;;9.90;62.70;;;;;;5070271;28;20101;-44
2022/03/20 11:24:32;;;;;;;25.30;17.10;;;9.80;61.20;;;;;;5070184;28;20040;-42
2022/03/20 11:27:01;;;;;;;24.17;16.02;;;10.20;62.60;;;;;;5069556;28;20041;-43
2022/03/20 11:29:44;;;;;;;25.55;16.65;;;10.00;63.00;;;;;;5070111;28;20383;-43
2022/03/20 11:32:10;;;;;;;27.23;16.90;;;10.20;63.00;;;;;;5069981;28;20040;-44
2022/03/20 11:34:37;;;;;;;29.77;18.33;;;10.60;62.80;;;;;;5069954;28;20040;-43
2022/03/20 11:37:08;;;;;;;28.15;17.67;;;10.30;63.00;;;;;;5069775;28;20040;-42
2022/03/20 11:39:39;;;;;;;23.30;16.58;;;10.40;62.80;;;;;;5069556;28;20366;-43
2022/03/20 11:42:25;;;;;;;28.48;18.20;;;10.40;62.20;;;;;;5069727;28;20284;-42
2022/03/20 11:45:00;;;;;;;23.70;16.17;;;10.40;62.30;;;;;;5068272;28;20036;-43
2022/03/20 11:47:31;;;;;;;26.88;17.85;;;10.30;62.70;;;;;;5069899;28;20112;-43
2022/03/20 11:50:24;;;;;;;27.50;18.42;;;10.30;63.00;;;;;;5070458;28;20186;-44
2022/03/20 11:52:58;;;;;;;25.00;16.67;;;10.40;63.90;;;;;;5069104;28;20140;-43
2022/03/20 11:55:56;;;;;;;28.00;17.98;;;10.40;63.10;;;;;;5070130;28;20115;-43
2022/03/20 11:58:34;;;;;;;28.38;16.52;;;10.30;61.80;;;;;;5069751;28;20094;-42
2022/03/20 12:01:06;;;;;;;28.95;18.35;;;10.30;62.50;;;;;;5069335;28;20041;-45
2022/03/20 12:03:50;;;;;;;28.08;18.00;;;10.40;62.20;;;;;;5068897;28;20471;-43
2022/03/20 12:06:19;;;;;;;25.70;17.25;;;10.50;62.50;;;;;;5069001;28;20127;-42
2022/03/20 12:09:03;;;;;;;26.15;18.65;;;10.50;61.90;;;;;;5069850;28;20052;-43
2022/03/20 12:11:34;;;;;;;23.50;15.45;;;10.60;62.10;;;;;;5069721;28;20040;-44
2022/03/20 12:14:38;;;;;;;29.63;17.67;;;10.80;61.50;;;;;;5069955;28;20647;-45
2022/03/20 12:17:04;;;;;;;29.02;16.88;;;10.80;60.50;;;;;;5069624;28;20036;-44
2022/03/20 12:19:42;;;;;;;25.35;15.15;;;10.80;61.00;;;;;;5069114;28;20478;-43
2022/03/20 12:22:16;;;;;;;25.88;16.63;;;10.90;61.10;;;;;;5069415;28;20040;-43
2022/03/20 12:24:45;;;;;;;25.42;17.60;;;10.80;60.90;;;;;;5069505;28;20048;-44
2022/03/20 12:27:23;;;;;;;25.25;17.38;;;10.80;61.70;;;;;;5069573;28;20036;-43
2022/03/20 12:29:48;;;;;;;31.67;19.15;;;10.80;60.90;;;;;;5069962;28;20036;-43
2022/03/20 12:32:15;;;;;;;29.63;18.95;;;10.80;61.40;;;;;;5069308;28;20394;-44
2022/03/20 12:34:45;;;;;;;28.52;17.80;;;11.10;61.70;;;;;;5069530;28;20041;-43
2022/03/20 12:37:37;;;;;;;27.33;17.70;;;11.30;62.00;;;;;;5069729;28;20053;-43
2022/03/20 12:40:02;;;;;;;25.27;17.38;;;11.40;60.10;;;;;;5069547;28;20040;-44
2022/03/20 12:42:33;;;;;;;24.38;16.85;;;11.40;60.50;;;;;;5069289;28;20098;-43
2022/03/20 12:45:00;;;;;;;24.73;16.90;;;11.50;60.90;;;;;;5069392;28;20037;-44
2022/03/20 12:47:27;;;;;;;24.00;16.67;;;11.50;61.10;;;;;;5068923;28;20135;-43
2022/03/20 12:50:04;;;;;;;28.48;18.73;;;11.40;60.90;;;;;;5068027;28;20040;-43
2022/03/20 12:52:32;;;;;;;25.33;17.20;;;11.40;60.70;;;;;;5069231;28;20167;-43
2022/03/20 12:55:09;;;;;;;24.58;17.05;;;11.30;60.80;;;;;;5067608;28;20449;-43
2022/03/20 12:57:43;;;;;;;27.08;19.40;;;11.30;60.70;;;;;;5068934;28;20482;-43
2022/03/20 13:00:16;;;;;;;32.58;17.95;;;11.20;61.00;;;;;;5069587;28;20032;-43
2022/03/20 13:03:07;;;;;;;26.38;17.25;;;11.30;61.00;;;;;;5068109;28;20464;-44
2022/03/20 13:06:00;;;;;;;26.53;18.00;;;11.30;60.30;;;;;;5069434;28;20050;-43
2022/03/20 13:08:27;;;;;;;;;;;11.30;59.70;;;;;;5069454;28;20047;-43
2022/03/20 13:10:55;;;;;;;25.58;16.75;;;11.30;60.10;;;;;;5069330;28;20007;-43
2022/03/20 13:13:27;;;;;;;24.10;17.10;;;11.50;60.10;;;;;;5068200;28;20437;-42
2022/03/20 13:15:53;;;;;;;24.15;16.30;;;11.70;60.30;;;;;;5068159;28;20040;-42
2022/03/20 13:18:24;;;;;;;24.02;17.05;;;12.20;59.90;;;;;;5067843;28;20119;-42